createdAt,value
2023-03-10T00:00:22.673Z,16.69
2023-03-10T00:01:22.244Z,16.69
2023-03-10T00:02:21.911Z,16.66
2023-03-10T00:03:21.719Z,16.65
2023-03-10T00:04:21.807Z,16.65
2023-03-10T00:05:21.949Z,16.65
2023-03-10T00:06:22.162Z,16.69
2023-03-10T00:07:21.813Z,16.64
2023-03-10T00:08:21.666Z,16.67
2023-03-10T00:09:22.074Z,16.58
2023-03-10T00:10:21.253Z,16.61
2023-03-10T00:11:21.966Z,16.62
2023-03-10T00:12:22.233Z,16.67
2023-03-10T00:13:21.067Z,16.66
2023-03-10T00:14:19.347Z,16.65
2023-03-10T00:15:21.406Z,16.63
2023-03-10T00:16:21.624Z,16.57
2023-03-10T00:17:21.375Z,16.58
2023-03-10T00:18:21.671Z,16.62
2023-03-10T00:19:21.592Z,16.60
2023-03-10T00:20:21.892Z,16.67
2023-03-10T00:21:22.081Z,16.69
2023-03-10T00:22:21.295Z,16.68
2023-03-10T00:23:21.305Z,16.62
2023-03-10T00:24:21.238Z,16.66
2023-03-10T00:25:21.204Z,16.65
2023-03-10T00:26:21.140Z,16.67
2023-03-10T00:27:21.647Z,16.65
2023-03-10T00:28:21.446Z,16.69
2023-03-10T00:29:21.263Z,16.71
2023-03-10T00:30:22.096Z,16.72
2023-03-10T00:31:21.306Z,16.62
2023-03-10T00:32:21.332Z,16.66
2023-03-10T00:33:21.255Z,16.73
2023-03-10T00:34:20.901Z,16.67
2023-03-10T00:35:21.519Z,16.61
2023-03-10T00:36:21.602Z,16.56
2023-03-10T00:37:21.412Z,16.57
2023-03-10T00:38:21.530Z,16.62
2023-03-10T00:39:21.080Z,16.66
2023-03-10T00:40:21.940Z,16.60
2023-03-10T00:41:21.461Z,16.58
2023-03-10T00:42:21.377Z,16.62
2023-03-10T00:43:21.143Z,16.70
2023-03-10T00:44:21.296Z,16.70
2023-03-10T00:45:22.197Z,16.77
2023-03-10T00:46:21.451Z,16.78
2023-03-10T00:47:21.470Z,16.79
2023-03-10T00:48:21.125Z,16.79
2023-03-10T00:49:21.057Z,16.74
2023-03-10T00:50:21.323Z,16.71
2023-03-10T00:51:21.673Z,16.67
2023-03-10T00:52:21.715Z,16.68
2023-03-10T00:53:21.495Z,16.69
2023-03-10T00:54:21.069Z,16.66
2023-03-10T00:55:22.043Z,16.70
2023-03-10T00:56:21.595Z,16.70
2023-03-10T00:57:21.264Z,16.69
2023-03-10T00:58:21.535Z,16.70
2023-03-10T00:59:21.401Z,16.65
2023-03-10T01:00:22.867Z,16.67
2023-03-10T01:01:24.834Z,16.67
2023-03-10T01:02:26.264Z,16.65
2023-03-10T01:03:21.391Z,16.68
2023-03-10T01:04:21.568Z,16.67
2023-03-10T01:05:21.760Z,16.60
2023-03-10T01:06:21.568Z,16.54
2023-03-10T01:07:21.203Z,16.53
2023-03-10T01:08:21.332Z,16.53
2023-03-10T01:09:20.947Z,16.61
2023-03-10T01:10:22.503Z,16.54
2023-03-10T01:11:21.345Z,16.51
2023-03-10T01:12:21.318Z,16.56
2023-03-10T01:13:21.150Z,16.57
2023-03-10T01:14:20.849Z,16.59
2023-03-10T01:15:21.895Z,16.55
2023-03-10T01:16:21.925Z,16.59
2023-03-10T01:17:21.948Z,16.60
2023-03-10T01:18:21.361Z,16.55
2023-03-10T01:19:21.062Z,16.63
2023-03-10T01:20:22.077Z,16.70
2023-03-10T01:21:20.634Z,16.59
2023-03-10T01:22:21.816Z,16.56
2023-03-10T01:23:21.169Z,16.57
2023-03-10T01:24:35.214Z,16.58
2023-03-10T01:25:20.855Z,16.59
2023-03-10T01:26:21.300Z,16.61
2023-03-10T01:27:21.197Z,16.63
2023-03-10T01:28:34.802Z,16.67
2023-03-10T01:29:21.076Z,16.69
2023-03-10T01:30:21.707Z,16.70
2023-03-10T01:31:21.601Z,16.77
2023-03-10T01:32:21.760Z,16.78
2023-03-10T01:33:21.273Z,16.68
2023-03-10T01:34:21.481Z,16.62
2023-03-10T01:35:21.461Z,16.66
2023-03-10T01:36:21.138Z,16.67
2023-03-10T01:37:20.996Z,16.68
2023-03-10T01:38:21.028Z,16.64
2023-03-10T01:39:20.980Z,16.67
2023-03-10T01:40:21.352Z,16.73
2023-03-10T01:41:21.266Z,16.68
2023-03-10T01:42:21.274Z,16.72
2023-03-10T01:43:21.266Z,16.85
2023-03-10T01:44:21.146Z,16.84
2023-03-10T01:45:21.790Z,16.72
2023-03-10T01:46:21.244Z,16.72
2023-03-10T01:47:20.949Z,16.70
2023-03-10T01:48:21.581Z,16.64
2023-03-10T01:49:21.168Z,16.59
2023-03-10T01:50:21.129Z,16.71
2023-03-10T01:51:20.868Z,16.69
2023-03-10T01:52:21.483Z,16.67
2023-03-10T01:53:20.999Z,16.64
2023-03-10T01:54:21.111Z,16.61
2023-03-10T01:55:21.602Z,16.54
2023-03-10T01:56:21.288Z,16.5
2023-03-10T01:57:21.116Z,16.54
2023-03-10T01:58:21.066Z,16.48
2023-03-10T01:59:21.128Z,16.5
2023-03-10T02:00:22.630Z,16.51
2023-03-10T02:01:21.498Z,16.47
2023-03-10T02:02:21.510Z,16.46
2023-03-10T02:03:21.802Z,16.48
2023-03-10T02:04:21.134Z,16.52
2023-03-10T02:05:21.067Z,16.62
2023-03-10T02:06:20.898Z,16.66
2023-03-10T02:07:21.256Z,16.68
2023-03-10T02:08:21.009Z,16.74
2023-03-10T02:09:21.040Z,16.63
2023-03-10T02:10:21.635Z,16.64
2023-03-10T02:11:21.705Z,16.58
2023-03-10T02:12:21.311Z,16.59
2023-03-10T02:13:21.322Z,16.54
2023-03-10T02:14:21.251Z,16.65
2023-03-10T02:15:21.390Z,16.63
2023-03-10T02:16:21.269Z,16.67
2023-03-10T02:17:21.141Z,16.70
2023-03-10T02:18:20.799Z,16.68
2023-03-10T02:19:21.166Z,16.69
2023-03-10T02:20:21.840Z,16.63
2023-03-10T02:21:21.106Z,16.63
2023-03-10T02:22:21.243Z,16.62
2023-03-10T02:23:21.339Z,16.57
2023-03-10T02:25:21.893Z,16.63
2023-03-10T02:27:21.350Z,16.56
2023-03-10T02:28:20.979Z,16.57
2023-03-10T02:29:21.505Z,16.53
2023-03-10T02:30:21.589Z,16.59
2023-03-10T02:31:20.980Z,16.65
2023-03-10T02:32:21.140Z,16.69
2023-03-10T02:33:21.024Z,16.65
2023-03-10T02:34:20.761Z,16.56
2023-03-10T02:35:22.193Z,16.63
2023-03-10T02:36:21.046Z,16.67
2023-03-10T02:37:21.338Z,16.71
2023-03-10T02:38:20.811Z,16.69
2023-03-10T02:39:20.854Z,16.64
2023-03-10T02:40:21.606Z,16.64
2023-03-10T02:41:21.742Z,16.69
2023-03-10T02:42:21.400Z,16.79
2023-03-10T02:43:20.824Z,16.72
2023-03-10T02:44:21.718Z,16.65
2023-03-10T02:45:21.638Z,16.56
2023-03-10T02:46:21.031Z,16.51
2023-03-10T02:47:21.257Z,16.45
2023-03-10T02:48:20.991Z,16.40
2023-03-10T02:49:20.886Z,16.52
2023-03-10T02:50:22.048Z,16.53
2023-03-10T02:51:22.021Z,16.60
2023-03-10T02:52:21.735Z,16.63
2023-03-10T02:53:21.458Z,16.57
2023-03-10T02:54:21.160Z,16.54
2023-03-10T02:55:21.440Z,16.60
2023-03-10T02:56:21.178Z,16.61
2023-03-10T02:57:22.068Z,16.47
2023-03-10T02:58:21.759Z,16.43
2023-03-10T02:59:21.178Z,16.35
2023-03-10T03:00:22.694Z,16.34
2023-03-10T03:01:21.670Z,16.31
2023-03-10T03:02:21.267Z,16.24
2023-03-10T03:03:21.080Z,16.25
2023-03-10T03:04:21.513Z,16.24
2023-03-10T03:05:21.601Z,16.18
2023-03-10T03:06:21.379Z,16.04
2023-03-10T03:07:21.358Z,16.03
2023-03-10T03:08:21.162Z,16.06
2023-03-10T03:09:21.202Z,16.10
2023-03-10T03:10:21.454Z,16.05
2023-03-10T03:11:20.803Z,16.12
2023-03-10T03:12:21.592Z,15.97
2023-03-10T03:13:20.723Z,16.11
2023-03-10T03:14:21.069Z,16.22
2023-03-10T03:15:21.849Z,16.24
2023-03-10T03:16:21.050Z,16.16
2023-03-10T03:17:20.953Z,16.14
2023-03-10T03:18:21.118Z,16.11
2023-03-10T03:19:21.241Z,16.15
2023-03-10T03:20:21.353Z,16.13
2023-03-10T03:21:20.580Z,16.04
2023-03-10T03:22:21.663Z,16.03
2023-03-10T03:23:21.238Z,16.01
2023-03-10T03:24:21.639Z,15.95
2023-03-10T03:25:21.971Z,15.94
2023-03-10T03:26:22.248Z,16.04
2023-03-10T03:27:20.898Z,15.97
2023-03-10T03:28:21.094Z,15.97
2023-03-10T03:29:21.457Z,15.96
2023-03-10T03:30:22.250Z,15.99
2023-03-10T03:31:20.915Z,16.00
2023-03-10T03:32:20.600Z,16.06
2023-03-10T03:33:21.480Z,16.11
2023-03-10T03:34:21.425Z,16.10
2023-03-10T03:35:21.826Z,16.09
2023-03-10T03:36:21.428Z,16.15
2023-03-10T03:37:21.165Z,16.25
2023-03-10T03:38:20.908Z,16.32
2023-03-10T03:39:21.295Z,16.21
2023-03-10T03:40:21.050Z,16.18
2023-03-10T03:41:21.177Z,16.20
2023-03-10T03:42:20.797Z,16.14
2023-03-10T03:43:21.859Z,16.16
2023-03-10T03:44:21.601Z,16.09
2023-03-10T03:45:29.453Z,16.04
2023-03-10T03:46:21.366Z,16.16
2023-03-10T03:47:21.317Z,16.16
2023-03-10T03:48:22.402Z,16.18
2023-03-10T03:49:21.058Z,16.22
2023-03-10T03:50:21.213Z,16.09
2023-03-10T03:51:21.492Z,15.92
2023-03-10T03:52:21.138Z,15.97
2023-03-10T03:53:21.068Z,16.04
2023-03-10T03:54:21.027Z,16.11
2023-03-10T03:55:21.428Z,16.11
2023-03-10T03:56:20.755Z,16.07
2023-03-10T03:57:21.495Z,16.08
2023-03-10T03:58:21.264Z,16.14
2023-03-10T03:59:20.981Z,16.20
2023-03-10T04:00:23.210Z,16.25
2023-03-10T04:01:21.349Z,16.21
2023-03-10T04:02:20.872Z,16.24
2023-03-10T04:03:21.721Z,16.18
2023-03-10T04:04:21.116Z,16.18
2023-03-10T04:05:20.857Z,16.20
2023-03-10T04:06:21.761Z,16.22
2023-03-10T04:07:21.513Z,16.25
2023-03-10T04:08:21.340Z,16.30
2023-03-10T04:09:21.268Z,16.35
2023-03-10T04:10:21.496Z,16.36
2023-03-10T04:11:21.420Z,16.33
2023-03-10T04:12:21.382Z,16.30
2023-03-10T04:13:21.081Z,16.32
2023-03-10T04:14:20.959Z,16.31
2023-03-10T04:15:21.349Z,16.37
2023-03-10T04:16:21.306Z,16.36
2023-03-10T04:17:20.918Z,16.22
2023-03-10T04:18:21.169Z,16.14
2023-03-10T04:19:21.235Z,16.15
2023-03-10T04:20:21.821Z,16.27
2023-03-10T04:22:21.490Z,16.36
2023-03-10T04:23:21.280Z,16.39
2023-03-10T04:24:21.361Z,16.26
2023-03-10T04:26:22.010Z,16.27
2023-03-10T04:27:21.920Z,16.32
2023-03-10T04:28:21.549Z,16.36
2023-03-10T04:29:21.417Z,16.38
2023-03-10T04:30:21.755Z,16.37
2023-03-10T04:31:22.295Z,16.34
2023-03-10T04:32:21.369Z,16.40
2023-03-10T04:33:21.217Z,16.45
2023-03-10T04:34:21.396Z,16.43
2023-03-10T04:35:21.200Z,16.42
2023-03-10T04:36:21.510Z,16.32
2023-03-10T04:37:21.106Z,16.34
2023-03-10T04:38:21.046Z,16.30
2023-03-10T04:39:21.006Z,16.29
2023-03-10T04:40:22.280Z,16.33
2023-03-10T04:41:21.260Z,16.29
2023-03-10T04:42:21.754Z,16.34
2023-03-10T04:43:20.734Z,16.34
2023-03-10T04:44:30.413Z,16.28
2023-03-10T04:45:21.339Z,16.26
2023-03-10T04:46:21.699Z,16.36
2023-03-10T04:47:21.373Z,16.35
2023-03-10T04:48:21.313Z,16.37
2023-03-10T04:49:20.917Z,16.39
2023-03-10T04:50:22.521Z,16.36
2023-03-10T04:51:20.973Z,16.38
2023-03-10T04:52:21.509Z,16.41
2023-03-10T04:53:21.451Z,16.50
2023-03-10T04:54:21.149Z,16.54
2023-03-10T04:55:21.092Z,16.54
2023-03-10T04:56:21.940Z,16.59
2023-03-10T04:57:21.964Z,16.64
2023-03-10T04:58:21.557Z,16.68
2023-03-10T04:59:21.813Z,16.68
2023-03-10T05:00:23.238Z,16.72
2023-03-10T05:01:21.583Z,16.70
2023-03-10T05:02:23.295Z,16.73
2023-03-10T05:03:21.402Z,16.76
2023-03-10T05:04:21.887Z,16.75
2023-03-10T05:05:21.850Z,16.76
2023-03-10T05:06:21.599Z,16.77
2023-03-10T05:07:21.422Z,16.77
2023-03-10T05:08:21.529Z,16.67
2023-03-10T05:09:21.648Z,16.67
2023-03-10T05:10:21.907Z,16.61
2023-03-10T05:11:21.020Z,16.63
2023-03-10T05:12:21.925Z,16.66
2023-03-10T05:13:21.725Z,16.66
2023-03-10T05:14:21.239Z,16.67
2023-03-10T05:15:21.648Z,16.70
2023-03-10T05:16:21.621Z,16.71
2023-03-10T05:17:21.117Z,16.70
2023-03-10T05:18:21.430Z,16.62
2023-03-10T05:19:21.349Z,16.62
2023-03-10T05:20:21.693Z,16.64
2023-03-10T05:21:21.523Z,16.69
2023-03-10T05:22:21.675Z,16.73
2023-03-10T05:23:20.973Z,16.77
2023-03-10T05:24:20.919Z,16.70
2023-03-10T05:25:22.372Z,16.68
2023-03-10T05:26:21.098Z,16.73
2023-03-10T05:27:21.255Z,16.75
2023-03-10T05:28:21.298Z,16.75
2023-03-10T05:30:21.591Z,16.73
2023-03-10T05:31:21.435Z,16.77
2023-03-10T05:32:21.694Z,16.77
2023-03-10T05:33:21.450Z,16.79
2023-03-10T05:34:21.431Z,16.76
2023-03-10T05:35:21.884Z,16.76
2023-03-10T05:36:21.863Z,16.76
2023-03-10T05:37:21.917Z,16.70
2023-03-10T05:38:21.458Z,16.53
2023-03-10T05:39:21.471Z,16.35
2023-03-10T05:40:21.300Z,16.25
2023-03-10T05:41:20.728Z,16.36
2023-03-10T05:42:21.221Z,16.39
2023-03-10T05:43:21.266Z,16.36
2023-03-10T05:44:21.446Z,16.43
2023-03-10T05:45:21.409Z,16.29
2023-03-10T05:46:21.232Z,16.24
2023-03-10T05:47:21.129Z,16.33
2023-03-10T05:48:20.781Z,16.47
2023-03-10T05:49:21.318Z,16.51
2023-03-10T05:50:21.150Z,16.52
2023-03-10T05:51:20.881Z,16.56
2023-03-10T05:52:21.385Z,16.58
2023-03-10T05:53:21.454Z,16.59
2023-03-10T05:54:21.788Z,16.63
2023-03-10T05:55:21.318Z,16.58
2023-03-10T05:56:21.930Z,16.49
2023-03-10T05:57:21.874Z,16.56
2023-03-10T05:58:21.668Z,16.63
2023-03-10T05:59:21.981Z,16.54
2023-03-10T06:00:28.301Z,16.58
2023-03-10T06:01:21.865Z,16.64
2023-03-10T06:02:21.126Z,16.69
2023-03-10T06:03:21.911Z,16.70
2023-03-10T06:04:21.760Z,16.72
2023-03-10T06:05:22.362Z,16.66
2023-03-10T06:06:29.860Z,16.59
2023-03-10T06:07:21.987Z,16.54
2023-03-10T06:08:29.315Z,16.50
2023-03-10T06:09:22.217Z,16.59
2023-03-10T06:10:21.908Z,16.67
2023-03-10T06:11:21.478Z,16.64
2023-03-10T06:12:35.630Z,16.51
2023-03-10T06:13:21.699Z,16.54
2023-03-10T06:14:35.367Z,16.63
2023-03-10T06:15:22.073Z,16.71
2023-03-10T06:16:21.480Z,16.75
2023-03-10T06:17:21.668Z,16.79
2023-03-10T06:18:21.888Z,16.81
2023-03-10T06:19:21.486Z,16.83
2023-03-10T06:20:21.969Z,16.85
2023-03-10T06:21:21.240Z,16.87
2023-03-10T06:22:20.772Z,16.89
2023-03-10T06:23:21.505Z,16.88
2023-03-10T06:24:21.906Z,16.88
2023-03-10T06:25:21.757Z,16.86
2023-03-10T06:26:22.631Z,16.85
2023-03-10T06:27:22.350Z,16.91
2023-03-10T06:28:22.517Z,16.92
2023-03-10T06:29:21.870Z,16.89
2023-03-10T06:30:21.932Z,16.93
2023-03-10T06:31:21.710Z,16.94
2023-03-10T06:32:22.063Z,16.94
2023-03-10T06:33:21.086Z,16.93
2023-03-10T06:34:21.254Z,16.94
2023-03-10T06:35:21.866Z,16.95
2023-03-10T06:36:21.665Z,16.95
2023-03-10T06:37:21.633Z,16.98
2023-03-10T06:38:21.427Z,17
2023-03-10T06:39:21.820Z,16.95
2023-03-10T06:40:22.001Z,16.93
2023-03-10T06:41:21.738Z,16.83
2023-03-10T06:42:21.395Z,16.78
2023-03-10T06:43:21.562Z,16.86
2023-03-10T06:44:21.280Z,16.92
2023-03-10T06:45:22.012Z,16.96
2023-03-10T06:46:21.635Z,16.95
2023-03-10T06:47:22.071Z,16.86
2023-03-10T06:48:21.224Z,16.88
2023-03-10T06:49:21.491Z,16.88
2023-03-10T06:50:22.124Z,16.89
2023-03-10T06:51:21.178Z,16.91
2023-03-10T06:52:21.076Z,16.90
2023-03-10T06:53:21.099Z,16.92
2023-03-10T06:54:21.487Z,16.92
2023-03-10T06:55:22.934Z,16.92
2023-03-10T06:56:22.208Z,16.96
2023-03-10T06:57:22.053Z,16.97
2023-03-10T06:58:21.813Z,17.02
2023-03-10T06:59:21.444Z,17.01
2023-03-10T07:00:23.002Z,17.03
2023-03-10T07:01:22.074Z,17.04
2023-03-10T07:02:21.478Z,17.09
2023-03-10T07:03:21.508Z,17.11
2023-03-10T07:04:21.925Z,17.13
2023-03-10T07:05:22.118Z,17.16
2023-03-10T07:06:21.404Z,17.19
2023-03-10T07:07:21.674Z,17.21
2023-03-10T07:08:21.478Z,17.25
2023-03-10T07:09:21.863Z,17.25
2023-03-10T07:10:22.299Z,17.28
2023-03-10T07:11:22.113Z,17.25
2023-03-10T07:12:21.465Z,17.20
2023-03-10T07:13:21.612Z,17.13
2023-03-10T07:14:21.401Z,17.17
2023-03-10T07:15:22.609Z,17.14
2023-03-10T07:16:21.606Z,17.03
2023-03-10T07:17:21.993Z,17.03
2023-03-10T07:18:21.626Z,17.06
2023-03-10T07:19:21.484Z,17.09
2023-03-10T07:20:22.441Z,17.14
2023-03-10T07:21:21.519Z,17.20
2023-03-10T07:22:21.548Z,17.26
2023-03-10T07:23:21.873Z,17.26
2023-03-10T07:24:21.425Z,17.29
2023-03-10T07:25:24.544Z,17.31
2023-03-10T07:26:22.054Z,17.29
2023-03-10T07:27:21.724Z,17.26
2023-03-10T07:28:29.791Z,17.30
2023-03-10T07:29:21.520Z,17.32
2023-03-10T07:30:22.372Z,17.36
2023-03-10T07:31:21.533Z,17.41
2023-03-10T07:32:21.703Z,17.42
2023-03-10T07:33:21.492Z,17.35
2023-03-10T07:34:21.823Z,17.34
2023-03-10T07:35:22.333Z,17.33
2023-03-10T07:36:21.661Z,17.28
2023-03-10T07:37:21.114Z,17.26
2023-03-10T07:38:21.947Z,17.25
2023-03-10T07:39:22.034Z,17.18
2023-03-10T07:40:22.378Z,17.07
2023-03-10T07:41:21.701Z,17.03
2023-03-10T07:42:21.650Z,16.96
2023-03-10T07:43:22.024Z,17.05
2023-03-10T07:44:21.830Z,17.17
2023-03-10T07:45:21.868Z,17.20
2023-03-10T07:46:22.386Z,17.22
2023-03-10T07:47:21.373Z,17.12
2023-03-10T07:48:21.609Z,17.02
2023-03-10T07:49:22.260Z,17.04
2023-03-10T07:50:21.871Z,17.15
2023-03-10T07:51:22.256Z,17.20
2023-03-10T07:52:21.760Z,17.09
2023-03-10T07:53:22.182Z,17.12
2023-03-10T07:54:21.679Z,17.12
2023-03-10T07:55:22.100Z,17.17
2023-03-10T07:56:21.891Z,17.23
2023-03-10T07:57:22.219Z,17.20
2023-03-10T07:58:21.801Z,17.18
2023-03-10T07:59:22.168Z,17.17
2023-03-10T08:00:23.058Z,17.26
2023-03-10T08:01:22.218Z,17.36
2023-03-10T08:02:22.668Z,17.32
2023-03-10T08:03:21.960Z,17.24
2023-03-10T08:04:21.808Z,17.22
2023-03-10T08:05:21.837Z,17.22
2023-03-10T08:06:22.294Z,17.19
2023-03-10T08:07:22.221Z,17.25
2023-03-10T08:08:22.228Z,17.33
2023-03-10T08:09:22.236Z,17.41
2023-03-10T08:10:22.290Z,17.45
2023-03-10T08:11:21.679Z,17.34
2023-03-10T08:12:21.762Z,17.32
2023-03-10T08:13:22.329Z,17.30
2023-03-10T08:14:21.324Z,17.26
2023-03-10T08:15:22.595Z,17.27
2023-03-10T08:16:21.969Z,17.27
2023-03-10T08:17:21.994Z,17.39
2023-03-10T08:18:21.899Z,17.51
2023-03-10T08:19:27.021Z,17.47
2023-03-10T08:20:21.973Z,17.39
2023-03-10T08:21:22.148Z,17.42
2023-03-10T08:22:22.719Z,17.47
2023-03-10T08:23:21.731Z,17.44
2023-03-10T08:24:21.460Z,17.42
2023-03-10T08:25:22.322Z,17.47
2023-03-10T08:26:22.031Z,17.49
2023-03-10T08:27:21.524Z,17.57
2023-03-10T08:28:22.242Z,17.53
2023-03-10T08:29:21.591Z,17.57
2023-03-10T08:30:21.961Z,17.68
2023-03-10T08:31:22.215Z,17.75
2023-03-10T08:32:21.720Z,17.73
2023-03-10T08:33:21.882Z,17.80
2023-03-10T08:34:21.984Z,17.84
2023-03-10T08:35:22.574Z,17.92
2023-03-10T08:36:21.715Z,18.04
2023-03-10T08:37:22.227Z,18.11
2023-03-10T08:38:22.152Z,18.05
2023-03-10T08:39:22.808Z,18.04
2023-03-10T08:40:22.230Z,18.02
2023-03-10T08:41:22.168Z,18.01
2023-03-10T08:42:21.711Z,18.07
2023-03-10T08:43:22.084Z,18.03
2023-03-10T08:44:22.056Z,18
2023-03-10T08:45:22.564Z,18.03
2023-03-10T08:46:22.022Z,17.97
2023-03-10T08:47:22.051Z,17.95
2023-03-10T08:48:21.576Z,17.95
2023-03-10T08:49:21.874Z,17.94
2023-03-10T08:50:22.377Z,17.98
2023-03-10T08:51:22.750Z,17.97
2023-03-10T08:52:22.364Z,17.92
2023-03-10T08:53:22.079Z,17.92
2023-03-10T08:54:21.981Z,17.93
2023-03-10T08:55:22.405Z,17.87
2023-03-10T08:56:22.105Z,17.90
2023-03-10T08:57:22.010Z,17.96
2023-03-10T08:58:22.179Z,17.92
2023-03-10T08:59:23.108Z,17.85
2023-03-10T09:00:23.121Z,17.94
2023-03-10T09:01:22.179Z,18.05
2023-03-10T09:02:22.696Z,18.11
2023-03-10T09:03:21.986Z,18.14
2023-03-10T09:04:21.856Z,18.12
2023-03-10T09:05:22.031Z,18.18
2023-03-10T09:06:22.035Z,18.19
2023-03-10T09:07:21.905Z,18.20
2023-03-10T09:08:22.099Z,18.20
2023-03-10T09:09:22.127Z,18.38
2023-03-10T09:10:21.781Z,18.43
2023-03-10T09:11:22.302Z,18.46
2023-03-10T09:12:22.010Z,18.46
2023-03-10T09:13:21.452Z,18.56
2023-03-10T09:14:21.980Z,18.62
2023-03-10T09:15:22.553Z,18.72
2023-03-10T09:16:22.202Z,18.90
2023-03-10T09:17:21.866Z,18.97
2023-03-10T09:18:21.818Z,19.03
2023-03-10T09:19:22.091Z,19.15
2023-03-10T09:20:21.789Z,19.15
2023-03-10T09:21:22.347Z,19.23
2023-03-10T09:22:22.625Z,19.25
2023-03-10T09:23:22.618Z,19.26
2023-03-10T09:24:22.156Z,19.31
2023-03-10T09:25:21.808Z,19.30
2023-03-10T09:26:22.190Z,19.27
2023-03-10T09:27:21.519Z,19.33
2023-03-10T09:28:22.569Z,19.44
2023-03-10T09:29:36.422Z,19.46
2023-03-10T09:30:22.596Z,19.42
2023-03-10T09:31:22.182Z,19.36
2023-03-10T09:32:22.822Z,19.35
2023-03-10T09:33:22.657Z,19.47
2023-03-10T09:34:22.073Z,19.46
2023-03-10T09:35:23.163Z,19.52
2023-03-10T09:36:22.449Z,19.67
2023-03-10T09:37:22.924Z,19.71
2023-03-10T09:38:22.241Z,19.77
2023-03-10T09:39:21.918Z,19.73
2023-03-10T09:40:22.344Z,19.70
2023-03-10T09:41:22.130Z,19.69
2023-03-10T09:42:36.347Z,19.63
2023-03-10T09:43:22.846Z,19.56
2023-03-10T09:44:23.040Z,19.59
2023-03-10T09:45:22.557Z,19.57
2023-03-10T09:46:22.135Z,19.63
2023-03-10T09:47:22.068Z,19.63
2023-03-10T09:48:23.567Z,19.59
2023-03-10T09:49:22.574Z,19.67
2023-03-10T09:50:22.668Z,19.70
2023-03-10T09:51:22.289Z,19.70
2023-03-10T09:52:22.208Z,19.76
2023-03-10T09:53:22.634Z,19.78
2023-03-10T09:54:22.263Z,19.75
2023-03-10T09:55:22.719Z,19.74
2023-03-10T09:56:21.715Z,19.84
2023-03-10T09:57:22.357Z,19.89
2023-03-10T09:58:22.216Z,19.97
2023-03-10T09:59:22.668Z,20.07
2023-03-10T10:00:23.323Z,20.14
2023-03-10T10:01:22.532Z,20.23
2023-03-10T10:02:21.886Z,20.33
2023-03-10T10:03:22.770Z,20.42
2023-03-10T10:04:22.546Z,20.43
2023-03-10T10:05:22.453Z,20.48
2023-03-10T10:06:22.547Z,20.52
2023-03-10T10:07:22.469Z,20.51
2023-03-10T10:08:21.734Z,20.61
2023-03-10T10:09:22.114Z,20.64
2023-03-10T10:10:22.494Z,20.68
2023-03-10T10:11:21.931Z,20.75
2023-03-10T10:12:22.345Z,20.80
2023-03-10T10:13:22.938Z,20.77
2023-03-10T10:14:29.597Z,20.63
2023-03-10T10:15:22.795Z,20.72
2023-03-10T10:16:34.001Z,20.78
2023-03-10T10:17:23.177Z,20.77
2023-03-10T10:18:25.448Z,20.81
2023-03-10T10:19:22.163Z,20.77
2023-03-10T10:20:22.255Z,20.80
2023-03-10T10:21:25.932Z,20.83
2023-03-10T10:22:22.408Z,20.87
2023-03-10T10:23:22.088Z,20.85
2023-03-10T10:24:22.959Z,20.82
2023-03-10T10:25:22.770Z,20.87
2023-03-10T10:26:21.703Z,20.90
2023-03-10T10:28:23.952Z,20.80
2023-03-10T10:29:22.122Z,20.75
2023-03-10T10:30:25.439Z,20.76
2023-03-10T10:31:22.811Z,20.72
2023-03-10T10:32:23.147Z,20.69
2023-03-10T10:33:22.632Z,20.57
2023-03-10T10:34:22.259Z,20.50
2023-03-10T10:35:22.544Z,20.49
2023-03-10T10:36:22.614Z,20.43
2023-03-10T10:37:22.663Z,20.30
2023-03-10T10:38:22.897Z,20.23
2023-03-10T10:39:22.438Z,20.18
2023-03-10T10:40:22.727Z,20.06
2023-03-10T10:41:22.477Z,19.97
2023-03-10T10:42:22.940Z,19.88
2023-03-10T10:43:22.200Z,19.88
2023-03-10T10:44:22.410Z,19.85
2023-03-10T10:45:23.266Z,19.87
2023-03-10T10:46:22.503Z,19.77
2023-03-10T10:47:22.833Z,19.67
2023-03-10T10:48:22.375Z,19.60
2023-03-10T10:49:22.466Z,19.52
2023-03-10T10:50:22.577Z,19.46
2023-03-10T10:51:22.973Z,19.45
2023-03-10T10:52:22.420Z,19.47
2023-03-10T10:53:22.116Z,19.43
2023-03-10T10:54:22.631Z,19.41
2023-03-10T10:55:22.213Z,19.37
2023-03-10T10:56:21.716Z,19.42
2023-03-10T10:57:22.453Z,19.39
2023-03-10T10:58:21.914Z,19.34
2023-03-10T10:59:23.409Z,19.26
2023-03-10T11:00:29.801Z,19.23
2023-03-10T11:02:31.494Z,19.23
2023-03-10T11:03:23.132Z,19.22
2023-03-10T11:04:23.612Z,19.16
2023-03-10T11:05:22.504Z,19.19
2023-03-10T11:06:36.710Z,19.18
2023-03-10T11:07:22.310Z,19.18
2023-03-10T11:08:22.548Z,19.20
2023-03-10T11:09:22.429Z,19.21
2023-03-10T11:10:22.761Z,19.18
2023-03-10T11:11:22.350Z,19.21
2023-03-10T11:12:22.327Z,19.20
2023-03-10T11:13:22.308Z,19.21
2023-03-10T11:14:21.745Z,19.15
2023-03-10T11:15:22.576Z,19.17
2023-03-10T11:16:22.213Z,19.19
2023-03-10T11:17:22.889Z,19.18
2023-03-10T11:18:41.312Z,19.10
2023-03-10T11:19:22.567Z,19.08
2023-03-10T11:20:23.787Z,19.03
2023-03-10T11:21:22.037Z,18.97
2023-03-10T11:22:22.220Z,18.99
2023-03-10T11:23:22.488Z,18.95
2023-03-10T11:24:23.533Z,18.87
2023-03-10T11:25:22.299Z,18.80
2023-03-10T11:26:22.750Z,18.79
2023-03-10T11:27:22.300Z,18.76
2023-03-10T11:28:21.940Z,18.75
2023-03-10T11:29:22.852Z,18.69
2023-03-10T11:30:41.750Z,18.64
2023-03-10T11:31:22.887Z,18.53
2023-03-10T11:32:23.143Z,18.47
2023-03-10T11:33:22.697Z,18.47
2023-03-10T11:34:22.098Z,18.41
2023-03-10T11:35:22.155Z,18.36
2023-03-10T11:36:22.639Z,18.31
2023-03-10T11:37:21.898Z,18.27
2023-03-10T11:38:22.224Z,18.28
2023-03-10T11:39:29.864Z,18.27
2023-03-10T11:40:22.535Z,18.15
2023-03-10T11:41:22.075Z,18.00
2023-03-10T11:42:23.669Z,17.95
2023-03-10T11:43:22.615Z,17.90
2023-03-10T11:44:22.099Z,17.82
2023-03-10T11:45:22.387Z,17.83
2023-03-10T11:46:22.913Z,17.78
2023-03-10T11:47:22.532Z,17.73
2023-03-10T11:48:23.098Z,17.79
2023-03-10T11:49:22.520Z,17.86
2023-03-10T11:50:22.279Z,17.78
2023-03-10T11:51:21.982Z,17.72
2023-03-10T11:52:21.917Z,17.81
2023-03-10T11:53:22.099Z,17.95
2023-03-10T11:54:21.961Z,18.07
2023-03-10T11:55:21.926Z,18.10
2023-03-10T11:56:22.330Z,18.16
2023-03-10T11:57:22.474Z,18.15
2023-03-10T11:58:22.588Z,18.05
2023-03-10T11:59:22.154Z,18.04
2023-03-10T12:00:26.196Z,18.00
2023-03-10T12:01:22.637Z,18
2023-03-10T12:02:22.318Z,18.02
2023-03-10T12:03:22.489Z,18.02
2023-03-10T12:04:22.178Z,17.96
2023-03-10T12:05:22.902Z,18.00
2023-03-10T12:06:25.489Z,18.08
2023-03-10T12:07:22.280Z,18.12
2023-03-10T12:08:22.262Z,18.27
2023-03-10T12:09:22.717Z,18.36
2023-03-10T12:10:22.913Z,18.45
2023-03-10T12:11:22.173Z,18.52
2023-03-10T12:12:22.087Z,18.69
2023-03-10T12:13:22.424Z,18.83
2023-03-10T12:14:21.958Z,18.94
2023-03-10T12:15:23.219Z,19.04
2023-03-10T12:16:22.010Z,19.08
2023-03-10T12:17:22.929Z,19.16
2023-03-10T12:18:24.995Z,19.26
2023-03-10T12:19:22.811Z,19.32
2023-03-10T12:20:23.508Z,19.37
2023-03-10T12:21:22.202Z,19.42
2023-03-10T12:22:22.786Z,19.42
2023-03-10T12:23:22.722Z,19.46
2023-03-10T12:24:22.483Z,19.46
2023-03-10T12:25:22.122Z,19.45
2023-03-10T12:26:23.209Z,19.49
2023-03-10T12:27:22.978Z,19.49
2023-03-10T12:28:22.348Z,19.54
2023-03-10T12:29:22.065Z,19.55
2023-03-10T12:30:25.529Z,19.64
2023-03-10T12:31:22.495Z,19.73
2023-03-10T12:32:22.805Z,19.80
2023-03-10T12:33:22.249Z,19.79
2023-03-10T12:34:22.565Z,19.81
2023-03-10T12:35:22.591Z,19.76
2023-03-10T12:36:22.116Z,19.77
2023-03-10T12:37:22.220Z,19.72
2023-03-10T12:38:22.734Z,19.75
2023-03-10T12:39:22.700Z,19.68
2023-03-10T12:40:22.420Z,19.68
2023-03-10T12:41:21.926Z,19.57
2023-03-10T12:42:22.108Z,19.49
2023-03-10T12:43:22.570Z,19.41
2023-03-10T12:44:22.196Z,19.34
2023-03-10T12:45:22.494Z,19.33
2023-03-10T12:46:21.704Z,19.29
2023-03-10T12:47:22.184Z,19.29
2023-03-10T12:48:22.449Z,19.33
2023-03-10T12:49:22.127Z,19.35
2023-03-10T12:50:22.944Z,19.33
2023-03-10T12:51:22.460Z,19.39
2023-03-10T12:52:22.270Z,19.43
2023-03-10T12:53:22.978Z,19.42
2023-03-10T12:54:22.504Z,19.40
2023-03-10T12:55:22.693Z,19.37
2023-03-10T12:56:22.814Z,19.36
2023-03-10T12:57:22.390Z,19.30
2023-03-10T12:58:22.582Z,19.30
2023-03-10T12:59:22.649Z,19.37
2023-03-10T13:00:23.154Z,19.41